Watson, New York
Current Conditions -  °F | °C
As of 6:58 AM on Thursday 23 Oct 2014 (Local Time) from KGTB Reporting Station
Overcast Overcast  
Wind Chill: 34°   Ceiling: 3800
Heat Index: 41°   Visibility: 10mi
Dew Point: 34°   Wind: 12mph
Humidity: 76%   Direction: 30°NNE
Pressure: 30.05"   Gusts: NA
Location:  43.7565°N, 75.5938°W
Report Text: KGTB 231058Z AUTO 03010KT 10SM SCT026 OVC038 05/01 A3005 RMK AO2 SLP181
Loading
Personal Weather Stations






























Interactive Weather Map
Tropical Storm Tracking
New forecast layout! Learn more

10-Day Weather Forecast

Advertisements
Track Severe Weather on mobile